sensor_id;sensor_type;location;lat;lon;timestamp;pressure;altitude;pressure_sealevel;temperature;humidity
5988;BME280;3021;51.000;6.980;2023-02-28T00:00:19;66283.13;;;-0.22;100.00
5988;BME280;3021;51.000;6.980;2023-02-28T00:02:45;66286.72;;;-0.16;100.00
5988;BME280;3021;51.000;6.980;2023-02-28T00:05:13;66295.53;;;-0.13;100.00
5988;BME280;3021;51.000;6.980;2023-02-28T00:07:39;66304.88;;;-0.03;100.00
5988;BME280;3021;51.000;6.980;2023-02-28T00:10:06;66310.19;;;0.05;100.00
5988;BME280;3021;51.000;6.980;2023-02-28T00:12:33;66308.88;;;0.01;100.00
5988;BME280;3021;51.000;6.980;2023-02-28T00:14:58;66317.69;;;0.04;100.00
5988;BME280;3021;51.000;6.980;2023-02-28T00:17:24;66316.88;;;0.08;100.00
5988;BME280;3021;51.000;6.980;2023-02-28T00:19:50;66315.91;;;0.10;100.00
5988;BME280;3021;51.000;6.980;2023-02-28T00:22:18;66313.06;;;0.07;100.00
5988;BME280;3021;51.000;6.980;2023-02-28T00:24:43;66310.75;;;0.05;100.00
5988;BME280;3021;51.000;6.980;2023-02-28T00:27:09;66302.19;;;-0.03;100.00
5988;BME280;3021;51.000;6.980;2023-02-28T00:29:35;66310.03;;;0.02;100.00
5988;BME280;3021;51.000;6.980;2023-02-28T00:32:01;66305.59;;;0.01;100.00
5988;BME280;3021;51.000;6.980;2023-02-28T00:34:26;66317.88;;;0.07;100.00
5988;BME280;3021;51.000;6.980;2023-02-28T00:36:52;66329.91;;;0.17;100.00
5988;BME280;3021;51.000;6.980;2023-02-28T00:39:17;66312.47;;;0.07;100.00
5988;BME280;3021;51.000;6.980;2023-02-28T00:41:42;66317.69;;;0.04;100.00
5988;BME280;3021;51.000;6.980;2023-02-28T00:44:08;66315.34;;;0.09;100.00
5988;BME280;3021;51.000;6.980;2023-02-28T00:46:34;66315.34;;;0.09;100.00
5988;BME280;3021;51.000;6.980;2023-02-28T00:48:59;66313.44;;;0.05;100.00
5988;BME280;3021;51.000;6.980;2023-02-28T00:51:25;66307.88;;;0.03;100.00
5988;BME280;3021;51.000;6.980;2023-02-28T00:53:50;66312.63;;;0.09;100.00
5988;BME280;3021;51.000;6.980;2023-02-28T00:56:15;66316.88;;;0.08;100.00
5988;BME280;3021;51.000;6.980;2023-02-28T00:58:41;66314.44;;;0.04;100.00
5988;BME280;3021;51.000;6.980;2023-02-28T01:01:06;66302.19;;;-0.03;100.00
5988;BME280;3021;51.000;6.980;2023-02-28T01:03:32;66299.69;;;-0.07;100.00
5988;BME280;3021;51.000;6.980;2023-02-28T01:05:58;66315.56;;;0.05;100.00
5988;BME280;3021;51.000;6.980;2023-02-28T01:08:24;66312.28;;;0.04;100.00
5988;BME280;3021;51.000;6.980;2023-02-28T01:10:49;66313.63;;;0.08;100.00
5988;BME280;3021;51.000;6.980;2023-02-28T01:13:15;66295.47;;;-0.06;100.00
5988;BME280;3021;51.000;6.980;2023-02-28T01:15:48;66302.34;;;0.00;100.00
5988;BME280;3021;51.000;6.980;2023-02-28T01:18:14;66300.47;;;-0.04;100.00
5988;BME280;3021;51.000;6.980;2023-02-28T01:20:40;66295.88;;;-0.08;100.00
5988;BME280;3021;51.000;6.980;2023-02-28T01:23:05;66303.31;;;-0.02;100.00
5988;BME280;3021;51.000;6.980;2023-02-28T01:25:34;66303.16;;;-0.04;100.00
5988;BME280;3021;51.000;6.980;2023-02-28T01:28:00;66303.31;;;-0.02;100.00
5988;BME280;3021;51.000;6.980;2023-02-28T01:30:25;66306.97;;;-0.03;100.00
5988;BME280;3021;51.000;6.980;2023-02-28T01:32:50;66289.00;;;-0.14;100.00
5988;BME280;3021;51.000;6.980;2023-02-28T01:35:19;66291.69;;;-0.14;100.00
5988;BME280;3021;51.000;6.980;2023-02-28T01:37:44;66293.56;;;-0.10;100.00
5988;BME280;3021;51.000;6.980;2023-02-28T01:40:11;66300.28;;;-0.07;100.00
5988;BME280;3021;51.000;6.980;2023-02-28T01:42:37;66298.88;;;-0.03;100.00
5988;BME280;3021;51.000;6.980;2023-02-28T01:45:25;66306.97;;;-0.03;100.00
5988;BME280;3021;51.000;6.980;2023-02-28T01:47:54;66303.16;;;-0.04;100.00
5988;BME280;3021;51.000;6.980;2023-02-28T01:50:25;66298.88;;;-0.03;100.00
5988;BME280;3021;51.000;6.980;2023-02-28T01:52:54;66308.47;;;0.03;100.00
5988;BME280;3021;51.000;6.980;2023-02-28T01:55:22;66310.03;;;0.02;100.00
5988;BME280;3021;51.000;6.980;2023-02-28T01:57:52;66306.41;;;-0.04;100.00
5988;BME280;3021;51.000;6.980;2023-02-28T02:00:23;66305.44;;;-0.02;100.00
5988;BME280;3021;51.000;6.980;2023-02-28T02:02:51;66301.44;;;-0.06;100.00
5988;BME280;3021;51.000;6.980;2023-02-28T02:05:21;66300.28;;;-0.07;100.00
5988;BME280;3021;51.000;6.980;2023-02-28T02:07:51;66296.09;;;-0.13;100.00
5988;BME280;3021;51.000;6.980;2023-02-28T02:10:20;66286.16;;;-0.17;100.00
5988;BME280;3021;51.000;6.980;2023-02-28T02:18:52;66283.47;;;-0.17;100.00
5988;BME280;3021;51.000;6.980;2023-02-28T02:24:24;66284.44;;;-0.19;100.00
5988;BME280;3021;51.000;6.980;2023-02-28T02:38:24;66281.41;;;-0.24;100.00
5988;BME280;3021;51.000;6.980;2023-02-28T02:41:37;66275.34;;;-0.34;100.00
5988;BME280;3021;51.000;6.980;2023-02-28T02:46:35;66268.81;;;-0.35;100.00
5988;BME280;3021;51.000;6.980;2023-02-28T02:49:06;66254.66;;;-0.45;100.00
5988;BME280;3021;51.000;6.980;2023-02-28T02:51:34;66266.34;;;-0.40;100.00
5988;BME280;3021;51.000;6.980;2023-02-28T02:54:11;66276.81;;;-0.28;100.00
5988;BME280;3021;51.000;6.980;2023-02-28T02:56:41;66280.41;;;-0.22;100.00
5988;BME280;3021;51.000;6.980;2023-02-28T02:59:11;66277.22;;;-0.30;100.00
5988;BME280;3021;51.000;6.980;2023-02-28T03:01:40;66280.41;;;-0.22;100.00
5988;BME280;3021;51.000;6.980;2023-02-28T03:04:12;66277.63;;;-0.32;100.00
5988;BME280;3021;51.000;6.980;2023-02-28T03:06:40;66258.09;;;-0.42;100.00
5988;BME280;3021;51.000;6.980;2023-02-28T03:09:05;66251.81;;;-0.48;100.00
5988;BME280;3021;51.000;6.980;2023-02-28T03:11:31;66248.94;;;-0.50;100.00
5988;BME280;3021;51.000;6.980;2023-02-28T03:21:43;66229.66;;;-0.65;100.00
5988;BME280;3021;51.000;6.980;2023-02-28T03:24:37;66227.44;;;-0.75;100.00
5988;BME280;3021;51.000;6.980;2023-02-28T03:30:03;66216.72;;;-0.82;100.00
5988;BME280;3021;51.000;6.980;2023-02-28T03:32:36;66208.72;;;-0.89;100.00
5988;BME280;3021;51.000;6.980;2023-02-28T03:35:21;66198.44;;;-0.98;100.00
5988;BME280;3021;51.000;6.980;2023-02-28T03:37:51;66197.28;;;-0.99;100.00
5988;BME280;3021;51.000;6.980;2023-02-28T03:40:23;66204.56;;;-0.95;100.00
5988;BME280;3021;51.000;6.980;2023-02-28T03:42:55;66215.50;;;-0.93;100.00
5988;BME280;3021;51.000;6.980;2023-02-28T03:45:28;66204.16;;;-0.93;100.00
5988;BME280;3021;51.000;6.980;2023-02-28T03:48:00;66210.84;;;-0.90;100.00
5988;BME280;3021;51.000;6.980;2023-02-28T03:50:35;66221.13;;;-0.80;100.00
5988;BME280;3021;51.000;6.980;2023-02-28T03:53:05;66214.63;;;-0.81;100.00
5988;BME280;3021;51.000;6.980;2023-02-28T03:55:40;66204.72;;;-0.93;100.00
5988;BME280;3021;51.000;6.980;2023-02-28T03:58:56;66216.00;;;-0.85;100.00
5988;BME280;3021;51.000;6.980;2023-02-28T04:01:34;66211.59;;;-0.87;100.00
5988;BME280;3021;51.000;6.980;2023-02-28T04:04:01;66216.16;;;-0.82;100.00
5988;BME280;3021;51.000;6.980;2023-02-28T04:06:27;66228.03;;;-0.74;100.00
5988;BME280;3021;51.000;6.980;2023-02-28T04:08:55;66212.56;;;-0.88;100.00
5988;BME280;3021;51.000;6.980;2023-02-28T04:11:25;66210.84;;;-0.90;100.00
5988;BME280;3021;51.000;6.980;2023-02-28T04:13:52;66213.31;;;-0.85;100.00
5988;BME280;3021;51.000;6.980;2023-02-28T04:16:17;66216.91;;;-0.79;100.00
5988;BME280;3021;51.000;6.980;2023-02-28T04:18:43;66229.56;;;-0.75;100.00
5988;BME280;3021;51.000;6.980;2023-02-28T04:21:09;66226.44;;;-0.73;100.00
5988;BME280;3021;51.000;6.980;2023-02-28T04:23:35;66226.44;;;-0.73;100.00
5988;BME280;3021;51.000;6.980;2023-02-28T04:26:01;66229.66;;;-0.65;100.00
5988;BME280;3021;51.000;6.980;2023-02-28T04:28:26;66232.19;;;-0.68;100.00
5988;BME280;3021;51.000;6.980;2023-02-28T04:31:00;66218.63;;;-0.78;100.00
5988;BME280;3021;51.000;6.980;2023-02-28T04:33:27;66220.16;;;-0.79;100.00
5988;BME280;3021;51.000;6.980;2023-02-28T04:36:00;66216.34;;;-0.80;100.00
5988;BME280;3021;51.000;6.980;2023-02-28T04:38:26;66215.19;;;-0.81;100.00
5988;BME280;3021;51.000;6.980;2023-02-28T04:40:51;66212.75;;;-0.85;100.00
5988;BME280;3021;51.000;6.980;2023-02-28T04:43:17;66212.41;;;-0.91;100.00
5988;BME280;3021;51.000;6.980;2023-02-28T04:45:42;66207.66;;;-0.97;100.00
5988;BME280;3021;51.000;6.980;2023-02-28T04:48:07;66186.03;;;-1.07;100.00
5988;BME280;3021;51.000;6.980;2023-02-28T04:50:33;66198.28;;;-1.01;100.00
5988;BME280;3021;51.000;6.980;2023-02-28T04:52:58;66198.44;;;-0.98;100.00
5988;BME280;3021;51.000;6.980;2023-02-28T04:55:24;66180.13;;;-1.15;100.00
5988;BME280;3021;51.000;6.980;2023-02-28T04:57:49;66197.53;;;-1.04;100.00
5988;BME280;3021;51.000;6.980;2023-02-28T05:00:15;66175.16;;;-1.17;100.00
5988;BME280;3021;51.000;6.980;2023-02-28T05:02:42;66194.66;;;-1.07;100.00
5988;BME280;3021;51.000;6.980;2023-02-28T05:05:07;66187.97;;;-1.10;100.00
5988;BME280;3021;51.000;6.980;2023-02-28T05:07:33;66179.75;;;-1.13;100.00
5988;BME280;3021;51.000;6.980;2023-02-28T05:09:58;66185.84;;;-1.10;100.00
5988;BME280;3021;51.000;6.980;2023-02-28T05:12:24;66194.03;;;-1.00;100.00
5988;BME280;3021;51.000;6.980;2023-02-28T05:14:49;66198.84;;;-1.00;100.00
5988;BME280;3021;51.000;6.980;2023-02-28T05:17:14;66204.31;;;-0.91;100.00
5988;BME280;3021;51.000;6.980;2023-02-28T05:19:40;66203.59;;;-0.94;100.00
5988;BME280;3021;51.000;6.980;2023-02-28T05:22:13;66202.66;;;-0.99;100.00
5988;BME280;3021;51.000;6.980;2023-02-28T05:24:38;66186.03;;;-1.07;100.00
5988;BME280;3021;51.000;6.980;2023-02-28T05:27:04;66184.13;;;-1.11;100.00
5988;BME280;3021;51.000;6.980;2023-02-28T05:29:29;66187.16;;;-1.06;100.00
5988;BME280;3021;51.000;6.980;2023-02-28T05:31:54;66180.72;;;-1.14;100.00
5988;BME280;3021;51.000;6.980;2023-02-28T05:34:20;66189.84;;;-1.06;100.00
5988;BME280;3021;51.000;6.980;2023-02-28T05:36:46;66183.00;;;-1.12;100.00
5988;BME280;3021;51.000;6.980;2023-02-28T05:39:11;66194.44;;;-1.02;100.00
5988;BME280;3021;51.000;6.980;2023-02-28T05:41:39;66208.72;;;-0.89;100.00
5988;BME280;3021;51.000;6.980;2023-02-28T05:44:04;66215.03;;;-0.83;100.00
5988;BME280;3021;51.000;6.980;2023-02-28T05:46:30;66218.78;;;-0.75;100.00
5988;BME280;3021;51.000;6.980;2023-02-28T05:48:55;66221.13;;;-0.80;100.00
5988;BME280;3021;51.000;6.980;2023-02-28T05:51:22;66209.88;;;-0.88;100.00
5988;BME280;3021;51.000;6.980;2023-02-28T05:53:48;66209.88;;;-0.88;100.00
5988;BME280;3021;51.000;6.980;2023-02-28T05:56:14;66213.31;;;-0.85;100.00
5988;BME280;3021;51.000;6.980;2023-02-28T05:58:39;66202.03;;;-0.93;100.00
5988;BME280;3021;51.000;6.980;2023-02-28T06:01:26;66202.38;;;-0.88;100.00
5988;BME280;3021;51.000;6.980;2023-02-28T06:03:55;66205.72;;;-0.94;100.00
5988;BME280;3021;51.000;6.980;2023-02-28T06:06:20;66207.00;;;-0.91;100.00
5988;BME280;3021;51.000;6.980;2023-02-28T06:08:46;66219.59;;;-0.79;100.00
5988;BME280;3021;51.000;6.980;2023-02-28T06:11:11;66211.03;;;-0.87;100.00
5988;BME280;3021;51.000;6.980;2023-02-28T06:13:37;66212.31;;;-0.83;100.00
5988;BME280;3021;51.000;6.980;2023-02-28T06:16:02;66221.31;;;-0.78;100.00
5988;BME280;3021;51.000;6.980;2023-02-28T06:18:28;66221.72;;;-0.80;100.00
5988;BME280;3021;51.000;6.980;2023-02-28T06:20:54;66217.88;;;-0.81;100.00
5988;BME280;3021;51.000;6.980;2023-02-28T06:23:20;66219.19;;;-0.77;100.00
5988;BME280;3021;51.000;6.980;2023-02-28T06:25:46;66221.47;;;-0.75;100.00
5988;BME280;3021;51.000;6.980;2023-02-28T06:28:11;66215.03;;;-0.83;100.00
5988;BME280;3021;51.000;6.980;2023-02-28T06:30:37;66218.69;;;-0.85;100.00
5988;BME280;3021;51.000;6.980;2023-02-28T06:33:03;66212.16;;;-0.86;100.00
5988;BME280;3021;51.000;6.980;2023-02-28T06:35:28;66221.47;;;-0.75;100.00
5988;BME280;3021;51.000;6.980;2023-02-28T06:37:54;66239.47;;;-0.64;100.00
5988;BME280;3021;51.000;6.980;2023-02-28T06:40:20;66233.47;;;-0.64;100.00
5988;BME280;3021;51.000;6.980;2023-02-28T06:42:45;66225.47;;;-0.72;100.00
5988;BME280;3021;51.000;6.980;2023-02-28T06:45:11;66218.44;;;-0.80;100.00
5988;BME280;3021;51.000;6.980;2023-02-28T06:47:39;66227.94;;;-0.67;100.00
5988;BME280;3021;51.000;6.980;2023-02-28T06:50:06;66237.16;;;-0.66;100.00
5988;BME280;3021;51.000;6.980;2023-02-28T06:52:32;66239.22;;;-0.59;100.00
5988;BME280;3021;51.000;6.980;2023-02-28T06:54:57;66245.75;;;-0.58;100.00
5988;BME280;3021;51.000;6.980;2023-02-28T06:57:28;66254.25;;;-0.43;100.00
5988;BME280;3021;51.000;6.980;2023-02-28T06:59:57;66262.69;;;-0.38;100.00
5988;BME280;3021;51.000;6.980;2023-02-28T07:02:26;66266.09;;;-0.35;100.00
5988;BME280;3021;51.000;6.980;2023-02-28T07:04:51;66269.53;;;-0.32;100.00
5988;BME280;3021;51.000;6.980;2023-02-28T07:07:17;66276.41;;;-0.26;100.00
5988;BME280;3021;51.000;6.980;2023-02-28T07:09:42;66293.00;;;-0.11;100.00
5988;BME280;3021;51.000;6.980;2023-02-28T07:12:07;66284.03;;;-0.16;100.00
5988;BME280;3021;51.000;6.980;2023-02-28T07:14:33;66302.56;;;-0.05;100.00
5988;BME280;3021;51.000;6.980;2023-02-28T07:16:58;66298.16;;;-0.06;100.00
5988;BME280;3021;51.000;6.980;2023-02-28T07:19:24;66306.91;;;0.04;100.00
5988;BME280;3021;51.000;6.980;2023-02-28T07:21:50;66330.06;;;0.20;100.00
5988;BME280;3021;51.000;6.980;2023-02-28T07:24:15;66337.25;;;0.31;100.00
5988;BME280;3021;51.000;6.980;2023-02-28T07:26:43;66351.81;;;0.40;100.00
5988;BME280;3021;51.000;6.980;2023-02-28T07:29:08;66363.25;;;0.50;100.00
5988;BME280;3021;51.000;6.980;2023-02-28T07:31:34;66382.16;;;0.67;100.00
5988;BME280;3021;51.000;6.980;2023-02-28T07:33:59;66400.50;;;0.83;100.00
5988;BME280;3021;51.000;6.980;2023-02-28T07:36:25;66417.69;;;0.99;100.00
5988;BME280;3021;51.000;6.980;2023-02-28T07:38:51;66428.91;;;1.14;100.00
5988;BME280;3021;51.000;6.980;2023-02-28T07:41:18;66462.56;;;1.42;100.00
5988;BME280;3021;51.000;6.980;2023-02-28T07:43:44;66487.78;;;1.64;100.00
5988;BME280;3021;51.000;6.980;2023-02-28T07:46:12;66522.94;;;1.98;100.00
5988;BME280;3021;51.000;6.980;2023-02-28T07:48:40;66561.94;;;2.33;100.00
5988;BME280;3021;51.000;6.980;2023-02-28T07:51:06;66643.59;;;3.09;100.00
5988;BME280;3021;51.000;6.980;2023-02-28T07:53:32;66963.75;;;5.96;100.00
5988;BME280;3021;51.000;6.980;2023-02-28T07:55:59;67313.66;;;9.08;100.00
5988;BME280;3021;51.000;6.980;2023-02-28T07:58:25;67562.38;;;11.35;100.00
5988;BME280;3021;51.000;6.980;2023-02-28T08:00:51;67723.53;;;12.73;100.00
5988;BME280;3021;51.000;6.980;2023-02-28T08:03:19;67858.06;;;13.95;100.00
5988;BME280;3021;51.000;6.980;2023-02-28T08:05:45;67909.78;;;14.44;95.74
5988;BME280;3021;51.000;6.980;2023-02-28T08:08:11;67855.31;;;13.95;95.03
5988;BME280;3021;51.000;6.980;2023-02-28T08:10:36;67757.84;;;13.06;94.24
5988;BME280;3021;51.000;6.980;2023-02-28T08:13:02;67687.94;;;12.47;95.16
5988;BME280;3021;51.000;6.980;2023-02-28T08:15:28;67682.72;;;12.42;95.34
5988;BME280;3021;51.000;6.980;2023-02-28T08:17:53;67806.50;;;13.50;93.14
5988;BME280;3021;51.000;6.980;2023-02-28T08:20:21;67915.16;;;14.51;89.99
5988;BME280;3021;51.000;6.980;2023-02-28T08:22:47;67903.41;;;14.38;89.17
5988;BME280;3021;51.000;6.980;2023-02-28T08:25:12;67894.59;;;14.28;87.88
5988;BME280;3021;51.000;6.980;2023-02-28T08:27:38;67715.56;;;12.69;90.41
5988;BME280;3021;51.000;6.980;2023-02-28T08:30:04;67638.59;;;12.00;91.35
5988;BME280;3021;51.000;6.980;2023-02-28T08:32:29;67408.94;;;9.93;92.34
5988;BME280;3021;51.000;6.980;2023-02-28T08:34:55;67300.66;;;9.02;95.58
5988;BME280;3021;51.000;6.980;2023-02-28T08:37:21;67276.16;;;8.75;96.57
5988;BME280;3021;51.000;6.980;2023-02-28T08:39:46;67218.59;;;8.26;96.91
5988;BME280;3021;51.000;6.980;2023-02-28T08:42:12;67169.44;;;7.79;96.65
5988;BME280;3021;51.000;6.980;2023-02-28T08:44:37;67110.06;;;7.26;98.14
5988;BME280;3021;51.000;6.980;2023-02-28T08:47:03;67080.81;;;7.03;98.97
5988;BME280;3021;51.000;6.980;2023-02-28T08:49:29;67073.34;;;6.96;99.50
5988;BME280;3021;51.000;6.980;2023-02-28T08:51:54;67151.56;;;7.64;98.59
5988;BME280;3021;51.000;6.980;2023-02-28T08:54:22;67314.38;;;9.11;96.04
5988;BME280;3021;51.000;6.980;2023-02-28T08:56:48;67286.38;;;8.81;93.14
5988;BME280;3021;51.000;6.980;2023-02-28T08:59:13;67332.25;;;9.27;93.32
5988;BME280;3021;51.000;6.980;2023-02-28T09:01:39;67370.97;;;9.62;92.57
5988;BME280;3021;51.000;6.980;2023-02-28T09:04:06;67227.66;;;8.31;95.90
5988;BME280;3021;51.000;6.980;2023-02-28T09:06:34;67217.00;;;8.27;96.11
5988;BME280;3021;51.000;6.980;2023-02-28T09:09:00;67348.88;;;9.40;94.18
5988;BME280;3021;51.000;6.980;2023-02-28T09:11:27;67539.09;;;11.12;92.47
5988;BME280;3021;51.000;6.980;2023-02-28T09:13:52;67511.94;;;10.87;90.25
5988;BME280;3021;51.000;6.980;2023-02-28T09:16:18;67560.66;;;11.33;90.29
5988;BME280;3021;51.000;6.980;2023-02-28T09:18:44;67578.28;;;11.44;89.48
5988;BME280;3021;51.000;6.980;2023-02-28T09:21:14;67611.97;;;11.76;88.43
5988;BME280;3021;51.000;6.980;2023-02-28T09:23:45;67581.31;;;11.49;87.63
5988;BME280;3021;51.000;6.980;2023-02-28T09:26:22;67722.53;;;12.75;86.38
5988;BME280;3021;51.000;6.980;2023-02-28T09:28:48;67875.47;;;14.11;84.92
5988;BME280;3021;51.000;6.980;2023-02-28T09:31:16;68008.84;;;15.29;83.73
5988;BME280;3021;51.000;6.980;2023-02-28T09:33:42;68277.41;;;17.72;78.79
5988;BME280;3021;51.000;6.980;2023-02-28T09:36:08;68449.00;;;19.24;73.09
5988;BME280;3021;51.000;6.980;2023-02-28T09:38:34;68681.41;;;21.30;70.07
5988;BME280;3021;51.000;6.980;2023-02-28T09:41:03;68909.63;;;23.34;61.47
5988;BME280;3021;51.000;6.980;2023-02-28T09:43:35;68955.72;;;23.74;59.24
5988;BME280;3021;51.000;6.980;2023-02-28T09:46:18;68771.78;;;22.09;56.50
5988;BME280;3021;51.000;6.980;2023-02-28T09:48:49;68443.66;;;19.17;62.23
5988;BME280;3021;51.000;6.980;2023-02-28T09:54:12;68260.44;;;17.55;60.24
5988;BME280;3021;51.000;6.980;2023-02-28T09:56:42;68148.28;;;16.55;61.47
5988;BME280;3021;51.000;6.980;2023-02-28T10:01:37;68270.88;;;17.64;61.01
5988;BME280;3021;51.000;6.980;2023-02-28T10:06:49;68187.94;;;16.93;62.23
5988;BME280;3021;51.000;6.980;2023-02-28T10:09:17;68419.22;;;18.95;61.14
5988;BME280;3021;51.000;6.980;2023-02-28T10:11:45;68540.41;;;20.05;56.92
5988;BME280;3021;51.000;6.980;2023-02-28T10:14:19;68547.97;;;20.12;58.16
5988;BME280;3021;51.000;6.980;2023-02-28T10:17:02;68723.97;;;21.67;55.23
5988;BME280;3021;51.000;6.980;2023-02-28T10:19:30;68793.34;;;22.29;54.60
5988;BME280;3021;51.000;6.980;2023-02-28T10:22:11;68799.06;;;22.31;52.54
5988;BME280;3021;51.000;6.980;2023-02-28T10:24:42;68802.72;;;22.37;51.96
5988;BME280;3021;51.000;6.980;2023-02-28T10:27:21;68824.88;;;22.56;51.07
5988;BME280;3021;51.000;6.980;2023-02-28T10:29:49;68799.78;;;22.34;51.44
5988;BME280;3021;51.000;6.980;2023-02-28T10:32:18;69025.13;;;24.33;49.16
5988;BME280;3021;51.000;6.980;2023-02-28T10:34:50;68971.38;;;23.86;47.30
5988;BME280;3021;51.000;6.980;2023-02-28T10:37:16;68787.50;;;22.23;47.86
5988;BME280;3021;51.000;6.980;2023-02-28T10:39:46;68882.19;;;23.09;47.70
5988;BME280;3021;51.000;6.980;2023-02-28T10:42:26;68591.66;;;20.50;50.03
5988;BME280;3021;51.000;6.980;2023-02-28T10:45:14;68903.53;;;23.23;49.24
5988;BME280;3021;51.000;6.980;2023-02-28T10:47:53;69067.19;;;24.70;46.07
5988;BME280;3021;51.000;6.980;2023-02-28T10:50:50;68333.13;;;18.19;51.84
5988;BME280;3021;51.000;6.980;2023-02-28T10:56:03;68855.19;;;22.83;49.24
5988;BME280;3021;51.000;6.980;2023-02-28T10:58:58;68833.03;;;22.64;48.83
5988;BME280;3021;51.000;6.980;2023-02-28T11:03:55;68047.16;;;15.63;55.97
5988;BME280;3021;51.000;6.980;2023-02-28T11:06:33;67574.38;;;11.43;63.48
5988;BME280;3021;51.000;6.980;2023-02-28T11:09:03;67378.31;;;9.66;68.85
5988;BME280;3021;51.000;6.980;2023-02-28T11:11:31;67281.91;;;8.80;73.73
5988;BME280;3021;51.000;6.980;2023-02-28T11:14:27;67183.69;;;7.90;77.76
5988;BME280;3021;51.000;6.980;2023-02-28T11:16:54;67084.38;;;6.99;80.62
5988;BME280;3021;51.000;6.980;2023-02-28T11:19:28;67038.91;;;6.58;83.59
5988;BME280;3021;51.000;6.980;2023-02-28T11:21:59;66993.56;;;6.20;86.10
5988;BME280;3021;51.000;6.980;2023-02-28T11:24:31;66975.44;;;6.09;87.52
5988;BME280;3021;51.000;6.980;2023-02-28T11:26:58;66984.09;;;6.16;89.80
5988;BME280;3021;51.000;6.980;2023-02-28T11:29:29;67003.78;;;6.27;89.38
5988;BME280;3021;51.000;6.980;2023-02-28T11:34:27;67090.47;;;7.09;88.60
5988;BME280;3021;51.000;6.980;2023-02-28T11:36:57;67097.94;;;7.16;88.40
5988;BME280;3021;51.000;6.980;2023-02-28T11:39:24;67093.19;;;7.09;90.06
5988;BME280;3021;51.000;6.980;2023-02-28T11:42:11;67025.06;;;6.46;90.50
5988;BME280;3021;51.000;6.980;2023-02-28T11:44:45;66994.88;;;6.23;92.27
5988;BME280;3021;51.000;6.980;2023-02-28T11:47:29;66945.34;;;5.79;94.35
5988;BME280;3021;51.000;6.980;2023-02-28T11:52:55;66966.47;;;5.96;95.13
5988;BME280;3021;51.000;6.980;2023-02-28T11:55:36;66942.31;;;5.74;95.39
5988;BME280;3021;51.000;6.980;2023-02-28T11:58:16;66940.19;;;5.75;96.12
5988;BME280;3021;51.000;6.980;2023-02-28T12:01:07;66962.47;;;5.92;96.97
5988;BME280;3021;51.000;6.980;2023-02-28T12:14:09;66941.91;;;5.76;97.79
5988;BME280;3021;51.000;6.980;2023-02-28T12:28:09;66928.09;;;5.64;96.41
5988;BME280;3021;51.000;6.980;2023-02-28T12:30:37;66933.25;;;5.68;97.27
5988;BME280;3021;51.000;6.980;2023-02-28T12:33:16;66936.88;;;5.74;96.02
5988;BME280;3021;51.000;6.980;2023-02-28T12:35:54;66939.44;;;5.71;95.51
5988;BME280;3021;51.000;6.980;2023-02-28T12:38:22;66946.19;;;5.75;95.46
5988;BME280;3021;51.000;6.980;2023-02-28T12:41:03;66943.19;;;5.80;96.77
5988;BME280;3021;51.000;6.980;2023-02-28T12:43:37;66942.91;;;5.75;95.02
5988;BME280;3021;51.000;6.980;2023-02-28T12:51:16;66952.69;;;5.83;95.97
5988;BME280;3021;51.000;6.980;2023-02-28T13:07:37;66939.44;;;5.71;97.54
5988;BME280;3021;51.000;6.980;2023-02-28T13:10:06;66944.78;;;5.79;97.40
5988;BME280;3021;51.000;6.980;2023-02-28T13:12:33;66947.91;;;5.77;97.03
5988;BME280;3021;51.000;6.980;2023-02-28T13:15:19;66927.03;;;5.56;97.38
5988;BME280;3021;51.000;6.980;2023-02-28T13:17:58;66936.56;;;5.69;98.34
5988;BME280;3021;51.000;6.980;2023-02-28T13:20:34;66938.69;;;5.68;97.59
5988;BME280;3021;51.000;6.980;2023-02-28T13:23:00;66949.38;;;5.83;97.53
5988;BME280;3021;51.000;6.980;2023-02-28T13:28:12;66942.16;;;5.71;97.44
5988;BME280;3021;51.000;6.980;2023-02-28T13:38:45;66946.91;;;5.78;97.60
5988;BME280;3021;51.000;6.980;2023-02-28T13:49:28;66962.47;;;5.92;97.97
5988;BME280;3021;51.000;6.980;2023-02-28T14:00:02;66971.09;;;6.00;98.41
5988;BME280;3021;51.000;6.980;2023-02-28T14:05:19;66973.56;;;6.04;98.70
5988;BME280;3021;51.000;6.980;2023-02-28T14:07:52;66964.53;;;5.99;98.50
5988;BME280;3021;51.000;6.980;2023-02-28T14:15:59;66972.41;;;6.03;99.56
5988;BME280;3021;51.000;6.980;2023-02-28T14:18:37;66970.53;;;5.99;98.76
5988;BME280;3021;51.000;6.980;2023-02-28T14:21:14;66969.09;;;6.03;98.84
5988;BME280;3021;51.000;6.980;2023-02-28T14:26:44;66982.03;;;6.10;99.17
5988;BME280;3021;51.000;6.980;2023-02-28T14:29:25;66977.75;;;6.11;99.05
5988;BME280;3021;51.000;6.980;2023-02-28T14:32:02;66994.88;;;6.23;98.08
5988;BME280;3021;51.000;6.980;2023-02-28T14:34:43;67002.19;;;6.28;97.74
5988;BME280;3021;51.000;6.980;2023-02-28T14:37:16;67012.00;;;6.36;97.57
5988;BME280;3021;51.000;6.980;2023-02-28T14:39:45;66997.75;;;6.26;97.16
5988;BME280;3021;51.000;6.980;2023-02-28T14:42:32;67008.69;;;6.36;98.26
5988;BME280;3021;51.000;6.980;2023-02-28T14:44:58;67006.94;;;6.34;98.08
5988;BME280;3021;51.000;6.980;2023-02-28T14:47:27;67015.44;;;6.39;97.40
5988;BME280;3021;51.000;6.980;2023-02-28T14:49:54;67003.94;;;6.29;98.58
5988;BME280;3021;51.000;6.980;2023-02-28T14:52:25;67013.28;;;6.40;97.91
5988;BME280;3021;51.000;6.980;2023-02-28T14:55:06;67014.88;;;6.39;97.58
5988;BME280;3021;51.000;6.980;2023-02-28T14:57:41;67002.94;;;6.31;98.12
5988;BME280;3021;51.000;6.980;2023-02-28T15:00:16;67017.31;;;6.44;97.78
5988;BME280;3021;51.000;6.980;2023-02-28T15:02:42;67017.31;;;6.44;98.31
5988;BME280;3021;51.000;6.980;2023-02-28T15:07:45;67006.22;;;6.31;97.52
5988;BME280;3021;51.000;6.980;2023-02-28T15:12:54;67010.84;;;6.35;98.50
5988;BME280;3021;51.000;6.980;2023-02-28T15:15:22;67014.88;;;6.39;98.17
5988;BME280;3021;51.000;6.980;2023-02-28T15:17:52;67019.47;;;6.43;99.70
5988;BME280;3021;51.000;6.980;2023-02-28T15:20:19;67025.81;;;6.49;99.20
5988;BME280;3021;51.000;6.980;2023-02-28T15:22:46;67039.91;;;6.56;98.31
5988;BME280;3021;51.000;6.980;2023-02-28T15:25:18;67022.09;;;6.50;97.82
5988;BME280;3021;51.000;6.980;2023-02-28T15:27:50;67025.38;;;6.51;97.73
5988;BME280;3021;51.000;6.980;2023-02-28T15:30:24;67007.94;;;6.33;97.47
5988;BME280;3021;51.000;6.980;2023-02-28T15:35:43;67002.94;;;6.31;98.93
5988;BME280;3021;51.000;6.980;2023-02-28T15:38:24;67010.25;;;6.35;98.89
5988;BME280;3021;51.000;6.980;2023-02-28T15:40:54;67007.53;;;6.35;99.06
5988;BME280;3021;51.000;6.980;2023-02-28T15:43:33;67010.84;;;6.35;98.88
5988;BME280;3021;51.000;6.980;2023-02-28T15:46:05;67005.38;;;6.35;99.06
5988;BME280;3021;51.000;6.980;2023-02-28T15:48:45;66997.59;;;6.23;99.80
5988;BME280;3021;51.000;6.980;2023-02-28T15:51:17;67005.66;;;6.31;98.99